createdAt,value
2022-12-23T00:05:02.503Z,6.11
2022-12-23T00:10:24.394Z,6.09
2022-12-23T00:15:46.277Z,6.12
2022-12-23T00:21:10.893Z,6.06
2022-12-23T00:26:32.906Z,6.24
2022-12-23T00:31:54.948Z,6.28
2022-12-23T00:37:16.816Z,6.35
2022-12-23T00:42:38.684Z,6.35
2022-12-23T00:48:00.528Z,6.39
2022-12-23T00:53:22.445Z,6.37
2022-12-23T00:58:44.290Z,6.44
2022-12-23T01:04:06.189Z,6.60
2022-12-23T01:09:28.352Z,6.45
2022-12-23T01:14:50.268Z,6.50
2022-12-23T01:20:12.716Z,6.56
2022-12-23T01:25:34.671Z,6.46
2022-12-23T01:30:57.028Z,6.48
2022-12-23T01:36:19.936Z,6.49
2022-12-23T01:41:41.823Z,6.43
2022-12-23T01:47:08.288Z,6.52
2022-12-23T01:52:34.470Z,6.57
2022-12-23T01:58:07.538Z,6.53
2022-12-23T02:03:29.529Z,6.55
2022-12-23T02:08:51.460Z,6.64
2022-12-23T02:14:37.901Z,6.74
2022-12-23T02:20:05.548Z,6.42
2022-12-23T02:25:49.200Z,6.70
2022-12-23T02:31:29.322Z,6.68
2022-12-23T02:36:56.088Z,6.72
2022-12-23T02:42:22.129Z,6.78
2022-12-23T02:47:59.600Z,6.70
2022-12-23T02:53:30.475Z,6.81
2022-12-23T02:59:08.548Z,6.81
2022-12-23T03:04:30.421Z,6.94
2022-12-23T03:10:12.238Z,6.79
2022-12-23T03:15:43.092Z,6.99
2022-12-23T03:21:19.260Z,6.98
2022-12-23T03:26:52.199Z,6.98
2022-12-23T03:32:15.982Z,7.13
2022-12-23T03:37:44.485Z,7.05
2022-12-23T03:43:18.158Z,7.04
2022-12-23T03:48:46.164Z,7.07
2022-12-23T03:54:14.427Z,7.09
2022-12-23T03:59:49.083Z,7.13
2022-12-23T04:05:26.971Z,7.14
2022-12-23T04:10:49.074Z,7.08
2022-12-23T04:16:11.098Z,7.13
2022-12-23T04:21:33.107Z,7.15
2022-12-23T04:26:54.981Z,7.07
2022-12-23T04:32:16.801Z,6.97
2022-12-23T04:37:39.066Z,6.83
2022-12-23T04:43:00.937Z,6.68
2022-12-23T04:48:22.793Z,6.69
2022-12-23T04:53:44.694Z,6.64
2022-12-23T04:59:06.542Z,6.66
2022-12-23T05:04:28.599Z,6.66
2022-12-23T05:09:50.479Z,6.53
2022-12-23T05:15:12.305Z,6.62
2022-12-23T05:20:34.127Z,6.56
2022-12-23T05:25:55.991Z,6.68
2022-12-23T05:31:17.944Z,6.66
2022-12-23T05:36:39.784Z,6.68
2022-12-23T05:42:01.602Z,6.69
2022-12-23T05:47:23.433Z,6.59
2022-12-23T05:52:45.357Z,6.68
2022-12-23T05:58:07.223Z,6.57
2022-12-23T06:03:29.635Z,6.52
2022-12-23T06:08:57.485Z,6.59
2022-12-23T06:14:26.835Z,6.62
2022-12-23T06:19:50.331Z,6.60
2022-12-23T06:25:12.207Z,6.58
2022-12-23T06:30:34.847Z,6.53
2022-12-23T06:35:56.944Z,6.48
2022-12-23T06:41:18.803Z,6.40
2022-12-23T06:46:40.822Z,6.51
2022-12-23T06:52:02.745Z,6.41
2022-12-23T06:57:24.639Z,6.59
2022-12-23T07:02:46.517Z,6.53
2022-12-23T07:08:08.474Z,6.66
2022-12-23T07:13:31.717Z,6.56
2022-12-23T07:18:53.531Z,6.63
2022-12-23T07:24:15.379Z,6.72
2022-12-23T07:29:37.236Z,7.50
2022-12-23T07:34:59.036Z,7.49
2022-12-23T07:40:24.664Z,7.69
2022-12-23T07:45:46.634Z,7.70
2022-12-23T07:51:08.922Z,7.54
2022-12-23T07:56:30.780Z,7.44
2022-12-23T08:01:52.744Z,7.16
2022-12-23T08:07:14.669Z,7.09
2022-12-23T08:12:36.551Z,7.12
2022-12-23T08:17:58.392Z,7.13
2022-12-23T08:23:24.668Z,7.19
2022-12-23T08:28:48.638Z,7.26
2022-12-23T08:34:10.607Z,7.11
2022-12-23T08:39:32.554Z,7.21
2022-12-23T08:44:54.385Z,7.40
2022-12-23T08:50:16.251Z,7.63
2022-12-23T08:55:45.969Z,7.75
2022-12-23T09:01:10.615Z,7.91
2022-12-23T09:06:36.777Z,8.06
2022-12-23T09:11:58.621Z,7.71
2022-12-23T09:17:20.458Z,7.76
2022-12-23T09:22:42.271Z,7.82
2022-12-23T09:28:07.131Z,7.69
2022-12-23T09:33:28.977Z,7.55
2022-12-23T09:38:55.689Z,7.71
2022-12-23T09:44:59.068Z,7.52
2022-12-23T09:50:26.708Z,7.38
2022-12-23T09:55:57.426Z,7.38
2022-12-23T10:01:44.773Z,7.44
2022-12-23T10:07:26.349Z,7.19
2022-12-23T10:12:52.838Z,7.24
2022-12-23T10:18:23.565Z,7.18
2022-12-23T10:23:50.657Z,7.16
2022-12-23T10:29:21.822Z,6.81
2022-12-23T10:34:56.925Z,6.70
2022-12-23T10:40:45.289Z,6.66
2022-12-23T10:46:34.671Z,6.37
2022-12-23T10:52:00.362Z,6.48
2022-12-23T10:57:22.747Z,6.57
2022-12-23T11:02:53.671Z,6.54
2022-12-23T11:08:16.108Z,6.43
2022-12-23T11:13:39.369Z,6.46
2022-12-23T11:19:07.000Z,6.46
2022-12-23T11:24:30.487Z,6.34
2022-12-23T11:29:55.504Z,6.40
2022-12-23T11:35:37.786Z,6.12
2022-12-23T11:40:59.927Z,6.28
2022-12-23T11:46:27.282Z,6.22
2022-12-23T11:52:10.718Z,6.13
2022-12-23T11:57:47.267Z,6.10
2022-12-23T12:03:19.249Z,6.07
2022-12-23T12:08:42.697Z,6.03
2022-12-23T12:14:08.262Z,5.86
2022-12-23T12:19:35.046Z,5.82
2022-12-23T12:24:59.787Z,5.88
2022-12-23T12:30:22.136Z,5.89
2022-12-23T12:35:53.936Z,5.93
2022-12-23T12:41:27.297Z,5.89
2022-12-23T12:47:52.855Z,5.70
2022-12-23T12:53:28.289Z,5.67
2022-12-23T12:58:50.273Z,5.79
2022-12-23T13:09:47.189Z,5.70
2022-12-23T13:15:58.491Z,5.80
2022-12-23T13:21:44.945Z,5.94
2022-12-23T13:27:24.958Z,5.94
2022-12-23T13:33:06.704Z,5.92
2022-12-23T13:39:03.188Z,6.01
2022-12-23T13:44:26.130Z,6.07
2022-12-23T13:49:52.675Z,6.07
2022-12-23T13:55:14.309Z,6.00
2022-12-23T14:00:36.726Z,6.35
2022-12-23T14:05:58.602Z,6.49
2022-12-23T14:11:32.239Z,6.51
2022-12-23T14:17:06.200Z,6.46
2022-12-23T14:22:57.112Z,6.57
2022-12-23T14:28:45.009Z,6.73
2022-12-23T14:34:26.830Z,6.79
2022-12-23T14:39:50.141Z,6.90
2022-12-23T14:45:41.418Z,6.97
2022-12-23T14:51:09.152Z,6.88
2022-12-23T14:56:40.075Z,6.95
2022-12-23T15:02:14.712Z,6.96
2022-12-23T15:07:39.021Z,7.00
2022-12-23T15:13:01.577Z,7.02
2022-12-23T15:18:23.839Z,7.11
2022-12-23T15:23:49.761Z,7.11
2022-12-23T15:29:11.967Z,7.06
2022-12-23T15:34:34.217Z,7.14
2022-12-23T15:40:06.153Z,7.14
2022-12-23T15:45:39.737Z,7.18
2022-12-23T15:51:11.799Z,7.17
2022-12-23T15:56:38.064Z,7.24
2022-12-23T16:02:32.657Z,7.33
2022-12-23T16:07:51.780Z,7.23
2022-12-23T16:13:20.601Z,7.36
2022-12-23T16:18:47.165Z,7.47
2022-12-23T16:24:09.922Z,7.40
2022-12-23T16:29:32.004Z,7.45
2022-12-23T16:34:53.861Z,7.57
2022-12-23T16:40:15.997Z,7.48
2022-12-23T16:45:38.589Z,7.53
2022-12-23T16:51:01.734Z,7.59
2022-12-23T16:56:28.396Z,7.62
2022-12-23T17:01:50.403Z,7.25
2022-12-23T17:07:12.624Z,7.59
2022-12-23T17:12:34.538Z,7.64
2022-12-23T17:17:56.514Z,7.80
2022-12-23T17:23:28.077Z,7.78
2022-12-23T17:28:50.301Z,7.82
2022-12-23T17:34:17.882Z,7.93
2022-12-23T17:39:39.732Z,8.02
2022-12-23T17:45:01.686Z,7.97
2022-12-23T17:50:24.960Z,8.08
2022-12-23T17:55:46.917Z,7.93
2022-12-23T18:01:31.743Z,8.00
2022-12-23T18:06:53.704Z,8.11
2022-12-23T18:12:40.439Z,8.00
2022-12-23T18:18:13.289Z,8.09
2022-12-23T18:23:35.193Z,8.08
2022-12-23T18:28:57.026Z,7.98
2022-12-23T18:34:19.903Z,7.94
2022-12-23T18:39:42.065Z,7.81
2022-12-23T18:45:30.821Z,7.86
2022-12-23T18:50:52.685Z,7.77
2022-12-23T18:56:16.117Z,7.74
2022-12-23T19:01:38.153Z,7.63
2022-12-23T19:07:00.169Z,7.67
2022-12-23T19:12:22.011Z,7.55
2022-12-23T19:17:44.523Z,7.52
2022-12-23T19:23:06.491Z,7.48
2022-12-23T19:28:28.359Z,7.43
2022-12-23T19:33:50.209Z,7.45
2022-12-23T19:39:14.004Z,7.36
2022-12-23T19:44:35.987Z,7.29
2022-12-23T19:49:57.901Z,7.27
2022-12-23T19:55:20.018Z,7.24
2022-12-23T20:00:42.119Z,7.26
2022-12-23T20:06:05.268Z,7.29
2022-12-23T20:11:27.165Z,7.23
2022-12-23T20:16:49.337Z,7.27
2022-12-23T20:22:11.207Z,7.12
2022-12-23T20:27:33.099Z,7.15
2022-12-23T20:32:54.972Z,7.09
2022-12-23T20:38:16.867Z,7.00
2022-12-23T20:43:39.538Z,6.97
2022-12-23T20:49:02.266Z,7.02
2022-12-23T20:54:31.582Z,6.97
2022-12-23T20:59:54.332Z,6.92
2022-12-23T21:05:16.390Z,6.98
2022-12-23T21:10:38.415Z,6.94
2022-12-23T21:16:02.682Z,6.90
2022-12-23T21:21:26.827Z,6.93
2022-12-23T21:26:55.255Z,6.99
2022-12-23T21:32:18.084Z,6.74
2022-12-23T21:37:40.497Z,6.80
2022-12-23T21:43:08.357Z,6.79
2022-12-23T21:48:32.345Z,6.90
2022-12-23T21:53:56.456Z,6.78
2022-12-23T21:59:18.345Z,6.84
2022-12-23T22:04:40.201Z,6.93
2022-12-23T22:10:02.050Z,6.88
2022-12-23T22:15:23.893Z,6.99
2022-12-23T22:20:46.534Z,6.88
2022-12-23T22:26:12.010Z,6.94
2022-12-23T22:31:48.893Z,6.94
2022-12-23T22:37:10.920Z,6.88
2022-12-23T22:42:33.474Z,6.89
2022-12-23T22:47:55.295Z,6.92
2022-12-23T22:53:17.147Z,6.93
2022-12-23T22:58:39.778Z,6.96
2022-12-23T23:04:03.463Z,6.90
2022-12-23T23:09:25.308Z,6.82
2022-12-23T23:14:47.188Z,6.93
2022-12-23T23:20:09.641Z,6.91
2022-12-23T23:25:31.481Z,6.63
2022-12-23T23:31:16.692Z,6.73
2022-12-23T23:36:35.246Z,6.81
2022-12-23T23:41:57.148Z,6.81
2022-12-23T23:47:18.988Z,6.85
2022-12-23T23:52:40.857Z,6.81
2022-12-23T23:58:02.917Z,6.81
